Time;durP1;ratioP1;P1;durP2;ratioP2;P2;SDS_P1;SDS_P2;PMS_P1;PMS_P2;Temp;Humidity;BMP_temperature;BMP_pressure;BME280_temperature;BME280_humidity;BME280_pressure;Samples;Min_cycle;Max_cycle;Signal;HPM_P1;HPM_P2
2024/02/20 00:02:42;;;;;;;110.30;103.97;;;7.80;99.90;;;;;;12574937;28;20094;-35
2024/02/20 00:08:44;;;;;;;112.00;105.90;;;7.80;99.90;;;;;;12582088;28;20059;-35
2024/02/20 00:14:46;;;;;;;105.25;99.07;;;7.90;99.90;;;;;;12565266;28;20131;-35
2024/02/20 00:20:48;;;;;;;109.20;102.78;;;7.90;99.90;;;;;;12564117;28;20095;-35
2024/02/20 00:26:50;;;;;;;102.28;96.53;;;7.80;99.90;;;;;;12555071;28;20045;-35
2024/02/20 00:32:51;;;;;;;96.28;90.80;;;7.80;99.90;;;;;;12562506;28;20668;-35
2024/02/20 00:38:53;;;;;;;91.10;85.82;;;7.70;99.90;;;;;;12558363;28;20068;-35
2024/02/20 00:44:55;;;;;;;86.25;81.25;;;7.70;99.90;;;;;;12539893;28;20045;-35
2024/02/20 00:50:58;;;;;;;88.43;83.22;;;7.70;99.90;;;;;;12564203;28;20132;-35
2024/02/20 00:57:00;;;;;;;88.82;83.75;;;7.60;99.90;;;;;;12540214;28;20417;-35
2024/02/20 01:03:01;;;;;;;88.38;83.05;;;7.70;99.90;;;;;;12542025;28;20080;-35
2024/02/20 01:09:03;;;;;;;83.47;78.85;;;7.70;99.90;;;;;;12546258;28;20080;-35
2024/02/20 01:15:06;;;;;;;88.20;82.82;;;7.60;99.90;;;;;;12582604;28;20083;-35
2024/02/20 01:21:09;;;;;;;87.32;82.40;;;7.60;99.90;;;;;;12549503;28;20079;-35
2024/02/20 01:27:11;;;;;;;88.47;83.07;;;7.50;99.90;;;;;;12548378;28;20076;-35
2024/02/20 01:33:13;;;;;;;92.90;87.47;;;7.50;99.90;;;;;;12551241;28;20542;-35
2024/02/20 01:39:15;;;;;;;97.80;91.72;;;7.40;99.90;;;;;;12578993;28;20044;-35
2024/02/20 01:45:17;;;;;;;98.95;92.40;;;7.40;99.90;;;;;;12562706;28;20693;-35
2024/02/20 01:51:23;;;;;;;91.70;86.40;;;7.40;99.90;;;;;;12563281;28;20205;-34
2024/02/20 01:57:25;;;;;;;96.07;90.28;;;7.40;99.90;;;;;;12543293;28;20056;-34
2024/02/20 02:03:27;;;;;;;93.50;88.10;;;7.40;99.90;;;;;;12579141;28;20128;-35
2024/02/20 02:09:29;;;;;;;97.25;91.30;;;7.40;99.90;;;;;;12540661;28;20045;-35
2024/02/20 02:15:31;;;;;;;98.38;92.72;;;7.40;99.90;;;;;;12547381;28;20096;-35
2024/02/20 02:21:34;;;;;;;102.10;95.72;;;7.50;99.90;;;;;;12549854;28;20087;-34
2024/02/20 02:27:37;;;;;;;98.05;92.32;;;7.30;99.90;;;;;;12557256;28;20072;-34
2024/02/20 02:33:39;;;;;;;96.88;91.18;;;7.30;99.90;;;;;;12567346;28;20045;-35
2024/02/20 02:39:41;;;;;;;95.18;89.25;;;7.30;99.90;;;;;;12546208;28;20048;-35
2024/02/20 02:45:43;;;;;;;99.93;93.38;;;7.30;99.90;;;;;;12549764;28;20048;-35
2024/02/20 02:51:44;;;;;;;91.13;85.40;;;7.20;99.90;;;;;;12565954;28;20087;-35
2024/02/20 02:57:46;;;;;;;91.40;85.90;;;7.30;99.90;;;;;;12563743;28;20088;-35
2024/02/20 03:03:48;;;;;;;93.10;87.07;;;7.30;99.90;;;;;;12556324;28;20081;-35
2024/02/20 03:09:50;;;;;;;94.60;88.32;;;7.10;99.90;;;;;;12559901;28;20097;-35
2024/02/20 03:15:52;;;;;;;94.82;88.57;;;7.10;99.90;;;;;;12550361;28;20038;-35
2024/02/20 03:21:54;;;;;;;86.90;81.40;;;7.10;99.90;;;;;;12565493;28;20091;-35
2024/02/20 03:27:56;;;;;;;94.82;88.60;;;7.10;99.90;;;;;;12572261;28;20049;-35
2024/02/20 03:33:58;;;;;;;82.88;77.20;;;7.10;99.90;;;;;;12581064;28;20055;-34
2024/02/20 03:40:00;;;;;;;80.45;74.65;;;7.00;99.90;;;;;;12572407;28;20493;-35
2024/02/20 03:46:03;;;;;;;80.70;75.63;;;7.00;99.90;;;;;;12569199;28;20532;-35
2024/02/20 03:52:05;;;;;;;83.13;76.40;;;7.00;99.90;;;;;;12583474;28;20053;-35
2024/02/20 03:58:07;;;;;;;82.70;76.72;;;7.00;99.90;;;;;;12584891;28;20109;-34
2024/02/20 04:04:10;;;;;;;79.65;74.28;;;7.00;99.90;;;;;;12557831;28;20073;-35
2024/02/20 04:10:14;;;;;;;79.95;74.45;;;7.00;99.90;;;;;;12573331;28;20425;-35
2024/02/20 04:16:16;;;;;;;82.75;77.13;;;6.90;99.90;;;;;;12565471;28;20052;-35
2024/02/20 04:22:18;;;;;;;89.13;82.85;;;6.80;99.90;;;;;;12547863;28;20049;-35
2024/02/20 04:28:20;;;;;;;87.20;81.03;;;6.80;99.90;;;;;;12572243;28;20063;-35
2024/02/20 04:34:22;;;;;;;91.85;85.57;;;6.80;99.90;;;;;;12536155;28;20048;-35
2024/02/20 04:40:26;;;;;;;91.85;85.40;;;6.80;99.90;;;;;;12564362;28;20040;-35
2024/02/20 04:46:29;;;;;;;92.38;86.20;;;6.80;99.90;;;;;;12557315;28;20486;-35
2024/02/20 04:52:31;;;;;;;93.25;86.75;;;7.00;99.90;;;;;;12559202;28;20466;-35
2024/02/20 04:58:33;;;;;;;89.60;83.18;;;6.80;99.90;;;;;;12569486;28;20477;-34
2024/02/20 05:04:35;;;;;;;82.97;77.25;;;6.80;99.90;;;;;;12534034;28;20048;-35
2024/02/20 05:10:37;;;;;;;83.40;77.35;;;6.80;99.90;;;;;;12582659;28;20516;-35
2024/02/20 05:16:39;;;;;;;85.70;79.10;;;6.80;99.90;;;;;;12540298;28;20128;-35
2024/02/20 05:22:45;;;;;;;86.68;80.32;;;6.80;99.90;;;;;;12531406;28;20049;-35
2024/02/20 05:28:47;;;;;;;84.53;77.80;;;6.70;99.90;;;;;;12558768;28;20511;-35
2024/02/20 05:34:49;;;;;;;79.30;73.45;;;6.70;99.90;;;;;;12556708;28;20045;-35
2024/02/20 05:40:51;;;;;;;82.18;76.60;;;6.70;99.90;;;;;;12556487;28;20047;-35
2024/02/20 05:46:53;;;;;;;88.25;81.95;;;6.60;99.90;;;;;;12547896;28;20060;-35
2024/02/20 05:52:55;;;;;;;94.43;87.57;;;6.60;99.90;;;;;;12541291;28;20410;-35
2024/02/20 05:58:57;;;;;;;93.72;87.05;;;6.50;99.90;;;;;;12560220;28;20040;-35
2024/02/20 06:05:00;;;;;;;92.45;85.78;;;6.50;99.90;;;;;;12556305;28;20045;-35
2024/02/20 06:11:02;;;;;;;90.30;82.80;;;6.50;99.90;;;;;;12537097;28;20037;-35
2024/02/20 06:17:05;;;;;;;87.95;81.00;;;6.60;99.90;;;;;;12558831;28;20557;-35
2024/02/20 06:23:07;;;;;;;81.88;75.63;;;6.60;99.90;;;;;;12515960;28;20131;-35
2024/02/20 06:29:11;;;;;;;82.57;76.93;;;6.70;99.90;;;;;;12501487;28;20057;-35
2024/02/20 06:35:13;;;;;;;87.10;80.77;;;6.70;99.90;;;;;;12521572;28;20049;-35
2024/02/20 06:41:15;;;;;;;88.45;82.20;;;6.70;99.90;;;;;;12532782;28;20053;-35
2024/02/20 06:47:16;;;;;;;88.05;81.53;;;6.70;99.90;;;;;;12491384;28;20088;-35
2024/02/20 06:53:19;;;;;;;90.03;83.80;;;6.70;99.90;;;;;;12540798;28;20088;-35
2024/02/20 06:59:20;;;;;;;87.05;80.68;;;6.70;99.90;;;;;;12502915;28;20053;-35
2024/02/20 07:05:22;;;;;;;91.22;84.63;;;6.70;99.90;;;;;;12506595;28;20081;-35
2024/02/20 07:11:24;;;;;;;93.72;87.60;;;6.60;99.90;;;;;;12523829;28;20045;-35
2024/02/20 07:17:28;;;;;;;94.78;87.57;;;6.70;99.90;;;;;;12505819;28;20524;-35
2024/02/20 07:23:31;;;;;;;94.53;88.18;;;6.80;99.90;;;;;;12543880;28;20056;-35
2024/02/20 07:29:32;;;;;;;97.72;91.07;;;6.80;99.90;;;;;;12524293;28;20548;-35
2024/02/20 07:35:34;;;;;;;90.85;84.88;;;6.90;99.90;;;;;;12513023;28;20513;-34
2024/02/20 07:41:36;;;;;;;109.53;101.22;;;6.90;99.90;;;;;;12522324;28;20045;-35
2024/02/20 07:47:38;;;;;;;104.40;96.93;;;6.80;99.90;;;;;;12504392;28;20096;-35
2024/02/20 07:53:40;;;;;;;111.88;104.38;;;6.90;99.90;;;;;;12514473;28;20053;-35
2024/02/20 07:59:42;;;;;;;107.55;100.03;;;6.80;99.90;;;;;;12514753;28;20052;-35
2024/02/20 08:05:44;;;;;;;106.45;98.40;;;6.90;99.90;;;;;;12536891;28;20044;-35
2024/02/20 08:11:46;;;;;;;105.68;98.30;;;7.10;99.90;;;;;;12512887;28;20072;-35
2024/02/20 08:17:48;;;;;;;101.05;94.22;;;7.20;99.90;;;;;;12502070;28;20132;-35
2024/02/20 08:23:50;;;;;;;95.30;88.70;;;7.20;99.90;;;;;;12579486;28;20045;-35
2024/02/20 08:29:54;;;;;;;101.72;94.82;;;7.30;99.90;;;;;;12547258;28;20068;-35
2024/02/20 08:35:55;;;;;;;101.95;94.82;;;7.40;99.90;;;;;;12564922;28;20408;-35
2024/02/20 08:41:57;;;;;;;106.75;99.03;;;7.70;99.90;;;;;;12578431;28;20137;-35
2024/02/20 08:48:01;;;;;;;108.63;100.68;;;8.10;99.90;;;;;;12563095;28;20059;-35
2024/02/20 08:54:03;;;;;;;120.60;112.70;;;8.20;99.90;;;;;;12553228;28;20059;-35
2024/02/20 09:00:11;;;;;;;130.10;121.13;;;8.10;99.90;;;;;;12553481;28;20043;-35
2024/02/20 09:06:13;;;;;;;121.15;112.95;;;7.80;99.90;;;;;;12557151;28;20044;-35
2024/02/20 09:12:19;;;;;;;150.52;140.63;;;8.00;99.90;;;;;;12548311;28;20057;-35
2024/02/20 09:18:22;;;;;;;124.28;115.95;;;7.90;99.90;;;;;;12569765;28;20489;-35
2024/02/20 09:24:24;;;;;;;138.40;129.07;;;8.00;99.90;;;;;;12580887;28;20045;-35
2024/02/20 09:30:25;;;;;;;125.95;117.00;;;8.00;99.90;;;;;;12564644;28;20063;-35
2024/02/20 09:36:27;;;;;;;130.32;120.57;;;8.30;99.90;;;;;;12568007;28;20056;-35
2024/02/20 09:42:30;;;;;;;138.32;128.90;;;8.30;99.90;;;;;;12549083;28;20123;-35
2024/02/20 09:48:32;;;;;;;122.30;113.63;;;8.30;99.90;;;;;;12556481;28;20132;-38
2024/02/20 09:54:35;;;;;;;142.10;131.85;;;8.30;99.90;;;;;;12562695;28;20484;-35
2024/02/20 10:00:36;;;;;;;140.05;130.60;;;8.30;99.90;;;;;;12545528;28;20072;-35
2024/02/20 10:06:38;;;;;;;144.73;134.68;;;8.20;99.90;;;;;;12533705;28;20520;-35
2024/02/20 10:12:41;;;;;;;137.52;127.03;;;8.40;99.90;;;;;;12564125;23;20083;-35
2024/02/20 10:18:43;;;;;;;129.38;121.18;;;8.40;99.90;;;;;;12601179;28;20040;-35
2024/02/20 10:24:45;;;;;;;133.70;124.70;;;8.70;99.90;;;;;;12612470;28;20048;-36
2024/02/20 10:30:47;;;;;;;144.98;134.55;;;8.90;99.90;;;;;;12623638;28;20431;-35
2024/02/20 10:36:49;;;;;;;148.43;138.38;;;8.80;99.90;;;;;;12602533;28;20484;-35
2024/02/20 10:42:53;;;;;;;149.88;138.75;;;8.90;99.90;;;;;;12625621;28;20128;-35
2024/02/20 10:48:58;;;;;;;149.07;138.25;;;9.10;99.90;;;;;;12627138;28;20055;-35
2024/02/20 10:55:05;;;;;;;143.13;133.15;;;9.20;99.90;;;;;;12601539;28;20044;-35
2024/02/20 11:01:25;;;;;;;141.40;131.87;;;9.30;99.90;;;;;;12533623;22;20062;-85
2024/02/20 11:07:28;;;;;;;135.67;126.60;;;9.30;99.90;;;;;;12462536;28;20494;-86
2024/02/20 11:13:31;;;;;;;159.77;148.10;;;9.10;99.90;;;;;;12456877;28;20050;-87
2024/02/20 11:19:33;;;;;;;149.63;139.23;;;9.00;99.90;;;;;;12451541;28;20417;-86
2024/02/20 11:25:37;;;;;;;133.90;124.78;;;9.40;99.90;;;;;;12464288;28;20053;-86
2024/02/20 11:31:39;;;;;;;126.78;118.32;;;9.50;99.90;;;;;;12472077;28;20053;-86
2024/02/20 11:37:50;;;;;;;131.00;122.18;;;9.60;99.90;;;;;;12469222;28;20532;-86
2024/02/20 11:44:00;;;;;;;;;;;9.70;99.90;;;;;;12466820;28;20050;-85
2024/02/20 11:50:03;;;;;;;127.63;118.85;;;9.60;99.90;;;;;;12484813;28;19925;-88
2024/02/20 11:56:06;;;;;;;123.13;114.35;;;9.60;99.90;;;;;;12467718;28;20129;-86
2024/02/20 12:02:08;;;;;;;121.78;113.53;;;9.30;99.90;;;;;;12492111;28;20100;-86
2024/02/20 12:08:17;;;;;;;111.65;104.22;;;9.30;99.90;;;;;;12466271;28;20053;-84
2024/02/20 12:14:19;;;;;;;117.05;108.45;;;9.20;99.90;;;;;;12446799;28;20169;-89
2024/02/20 12:20:22;;;;;;;110.35;102.22;;;9.20;99.90;;;;;;12472520;28;20052;-87
2024/02/20 12:26:25;;;;;;;111.53;103.50;;;9.20;99.90;;;;;;12455211;28;20057;-83
2024/02/20 12:32:27;;;;;;;138.00;127.80;;;9.30;99.90;;;;;;12471986;28;20061;-86
2024/02/20 12:38:29;;;;;;;110.35;101.97;;;9.30;99.90;;;;;;12457024;28;20056;-85
2024/02/20 12:44:31;;;;;;;106.15;98.60;;;9.40;99.90;;;;;;12464258;28;20462;-87
2024/02/20 12:50:34;;;;;;;124.75;115.18;;;9.50;99.90;;;;;;12488034;28;20053;-86
2024/02/20 12:56:36;;;;;;;109.50;101.78;;;9.40;99.90;;;;;;12475903;28;20056;-85
2024/02/20 13:02:38;;;;;;;129.10;119.15;;;9.40;99.90;;;;;;12469820;28;20062;-88
2024/02/20 13:08:40;;;;;;;103.72;96.10;;;9.30;99.90;;;;;;12489108;28;20049;-86
2024/02/20 13:14:47;;;;;;;113.55;105.32;;;9.40;99.90;;;;;;12457122;28;20505;-86
2024/02/20 13:20:49;;;;;;;113.00;104.50;;;9.50;99.90;;;;;;12482496;28;20053;-86
2024/02/20 13:26:53;;;;;;;117.85;109.22;;;9.50;99.90;;;;;;12467988;28;20497;-85
2024/02/20 13:32:56;;;;;;;108.70;100.85;;;9.60;99.90;;;;;;12497423;28;20064;-88
2024/02/20 13:38:58;;;;;;;105.47;98.00;;;9.60;99.90;;;;;;12478731;28;20041;-87
2024/02/20 13:45:01;;;;;;;95.90;89.40;;;9.50;99.90;;;;;;12485221;28;20567;-85
2024/02/20 13:51:03;;;;;;;96.95;89.82;;;9.70;99.90;;;;;;12480465;28;20049;-86
2024/02/20 13:57:05;;;;;;;101.38;93.35;;;9.50;99.90;;;;;;12451489;28;20121;-88
2024/02/20 14:03:07;;;;;;;103.57;95.93;;;9.50;99.90;;;;;;12470685;28;20053;-87
2024/02/20 14:09:09;;;;;;;102.82;95.43;;;9.40;99.90;;;;;;12462217;28;20069;-87
2024/02/20 14:15:12;;;;;;;103.32;95.93;;;9.50;99.90;;;;;;12445356;28;20045;-86
2024/02/20 14:21:13;;;;;;;117.20;108.78;;;9.40;99.90;;;;;;12473401;28;20099;-86
2024/02/20 14:27:15;;;;;;;97.00;90.30;;;9.20;99.90;;;;;;12485744;28;20061;-87
2024/02/20 14:33:20;;;;;;;92.32;85.38;;;9.30;99.90;;;;;;12485405;28;20049;-86
2024/02/20 14:39:22;;;;;;;97.25;90.13;;;9.30;99.90;;;;;;12479419;28;20127;-86
2024/02/20 14:45:24;;;;;;;93.10;86.03;;;9.30;99.90;;;;;;12485091;28;20075;-87
2024/02/20 14:51:26;;;;;;;101.28;93.63;;;9.30;99.90;;;;;;12479883;28;20049;-88
2024/02/20 14:57:28;;;;;;;108.20;100.45;;;9.10;99.90;;;;;;12479875;28;20053;-85
2024/02/20 15:03:30;;;;;;;99.32;91.72;;;9.10;99.90;;;;;;12448941;28;20054;-86
2024/02/20 15:09:32;;;;;;;113.72;105.35;;;9.10;99.90;;;;;;12434848;28;20061;-86
2024/02/20 15:15:34;;;;;;;108.88;100.90;;;9.00;99.90;;;;;;12424034;28;20054;-86
2024/02/20 15:21:35;;;;;;;106.97;99.65;;;9.00;99.90;;;;;;12421225;28;20060;-87
2024/02/20 15:27:39;;;;;;;116.47;108.38;;;9.00;99.90;;;;;;12454822;28;20178;-87
2024/02/20 15:33:41;;;;;;;122.50;113.60;;;8.90;99.90;;;;;;12440922;28;20050;-87
2024/02/20 15:39:43;;;;;;;120.53;111.95;;;8.90;99.90;;;;;;12426915;28;20046;-87
2024/02/20 15:45:46;;;;;;;126.47;117.78;;;8.80;99.90;;;;;;12444054;28;20053;-88
2024/02/20 15:51:49;;;;;;;125.90;117.35;;;8.80;99.90;;;;;;12431774;28;20077;-86
2024/02/20 15:57:51;;;;;;;123.90;115.82;;;8.70;99.90;;;;;;12436263;28;20142;-86
2024/02/20 16:03:53;;;;;;;122.55;114.43;;;8.70;99.90;;;;;;12486911;28;20041;-87
2024/02/20 16:09:55;;;;;;;115.90;108.22;;;8.70;99.90;;;;;;12470746;28;20045;-85
2024/02/20 16:15:57;;;;;;;122.53;114.15;;;8.70;99.90;;;;;;12456990;28;20049;-88
2024/02/20 16:21:59;;;;;;;118.53;110.63;;;8.60;99.90;;;;;;12460410;28;20046;-89
2024/02/20 16:28:01;;;;;;;121.40;113.10;;;8.60;99.90;;;;;;12471361;28;20502;-87
2024/02/20 16:34:03;;;;;;;117.35;109.55;;;8.60;99.90;;;;;;12457452;28;20053;-85
2024/02/20 16:40:06;;;;;;;116.28;108.25;;;8.60;99.90;;;;;;12454661;28;20046;-86
2024/02/20 16:46:08;;;;;;;116.82;109.07;;;8.60;99.90;;;;;;12461925;28;20057;-87
2024/02/20 16:52:11;;;;;;;115.20;106.75;;;8.50;99.90;;;;;;12464736;28;20157;-87
2024/02/20 16:58:13;;;;;;;121.93;113.90;;;8.50;99.90;;;;;;12494182;28;20041;-87
2024/02/20 17:04:16;;;;;;;120.30;111.95;;;8.50;99.90;;;;;;12506250;28;20087;-87
2024/02/20 17:10:18;;;;;;;116.72;108.72;;;8.40;99.90;;;;;;12481030;28;20109;-88
2024/02/20 17:16:20;;;;;;;120.90;112.25;;;8.40;99.90;;;;;;12473310;28;20053;-86
2024/02/20 17:22:22;;;;;;;119.53;111.82;;;8.50;99.90;;;;;;12460661;28;20064;-87
2024/02/20 17:28:24;;;;;;;116.15;108.55;;;8.50;99.90;;;;;;12474349;28;20560;-87
2024/02/20 17:34:29;;;;;;;116.20;108.25;;;8.50;99.90;;;;;;12473219;28;20095;-87
2024/02/20 17:40:31;;;;;;;112.05;104.88;;;8.50;99.90;;;;;;12478624;28;20097;-88
2024/02/20 17:46:33;;;;;;;114.30;106.38;;;8.40;99.90;;;;;;12445736;28;20053;-87
2024/02/20 17:52:36;;;;;;;113.65;106.13;;;8.40;99.90;;;;;;12446599;28;20045;-87
2024/02/20 17:58:38;;;;;;;110.90;102.88;;;8.40;99.90;;;;;;12460410;28;20056;-87
2024/02/20 18:04:40;;;;;;;115.47;108.35;;;8.40;99.90;;;;;;12456601;28;20042;-87
2024/02/20 18:10:42;;;;;;;114.53;106.93;;;8.40;99.90;;;;;;12474554;28;20049;-87
2024/02/20 18:16:44;;;;;;;116.30;108.65;;;8.40;99.90;;;;;;12455862;28;20046;-87
2024/02/20 18:22:47;;;;;;;115.97;108.53;;;8.40;99.90;;;;;;12461863;28;20057;-85
2024/02/20 18:28:49;;;;;;;112.88;104.88;;;8.30;99.90;;;;;;12478250;28;20049;-88
2024/02/20 18:34:51;;;;;;;105.18;97.55;;;8.40;99.90;;;;;;12479752;28;20092;-87
2024/02/20 18:40:54;;;;;;;108.00;100.07;;;8.30;99.90;;;;;;12483912;28;20045;-87
2024/02/20 18:46:56;;;;;;;108.28;100.63;;;8.40;99.90;;;;;;12491629;28;20071;-87
2024/02/20 18:52:58;;;;;;;110.30;102.03;;;8.40;99.90;;;;;;12497725;28;20449;-87
2024/02/20 18:59:04;;;;;;;105.75;98.43;;;8.50;99.90;;;;;;12483011;28;20075;-88
2024/02/20 19:05:06;;;;;;;112.60;104.47;;;8.50;99.90;;;;;;12477529;28;20046;-86
2024/02/20 19:11:10;;;;;;;117.05;108.75;;;8.50;99.90;;;;;;12486233;28;20053;-86
2024/02/20 19:17:12;;;;;;;112.95;105.72;;;8.50;99.90;;;;;;12479983;28;20053;-87
2024/02/20 19:23:15;;;;;;;113.53;105.38;;;8.50;99.90;;;;;;12482736;28;20037;-86
2024/02/20 19:29:18;;;;;;;113.90;105.43;;;8.40;99.90;;;;;;12473279;28;20057;-87
2024/02/20 19:35:20;;;;;;;111.45;103.47;;;8.50;99.90;;;;;;12480312;28;20068;-86
2024/02/20 19:41:24;;;;;;;113.78;105.95;;;8.40;99.90;;;;;;12457956;28;20506;-86
2024/02/20 19:47:26;;;;;;;111.97;104.00;;;8.40;99.90;;;;;;12452024;28;20057;-87
2024/02/20 19:53:28;;;;;;;117.70;109.22;;;8.60;99.90;;;;;;12465452;28;20057;-89
2024/02/20 19:59:32;;;;;;;117.68;109.72;;;8.50;99.90;;;;;;12481153;28;20422;-86
2024/02/20 20:05:35;;;;;;;120.07;111.68;;;8.50;99.90;;;;;;12473091;28;20046;-86
2024/02/20 20:11:38;;;;;;;117.30;109.80;;;8.50;99.90;;;;;;12465656;28;20046;-89
2024/02/20 20:17:40;;;;;;;126.13;118.50;;;8.50;99.90;;;;;;12461500;28;20057;-85
2024/02/20 20:23:42;;;;;;;122.85;115.15;;;8.40;99.90;;;;;;12479279;28;20061;-86
2024/02/20 20:29:50;;;;;;;122.75;115.07;;;8.40;99.90;;;;;;12473700;28;20493;-86
2024/02/20 20:35:52;;;;;;;122.97;115.72;;;8.40;99.90;;;;;;12465623;28;20060;-84
2024/02/20 20:41:53;;;;;;;124.45;116.78;;;8.40;99.90;;;;;;12469620;28;20061;-85
2024/02/20 20:47:58;;;;;;;123.40;115.07;;;8.50;99.90;;;;;;12447676;28;20140;-87
2024/02/20 20:54:01;;;;;;;121.30;113.63;;;8.50;99.90;;;;;;12474948;28;20421;-85
2024/02/20 21:00:06;;;;;;;125.40;117.50;;;8.50;99.90;;;;;;12480917;28;20057;-86
2024/02/20 21:06:08;;;;;;;;;;;8.50;99.90;;;;;;12450429;28;20108;-87
2024/02/20 21:12:10;;;;;;;114.57;107.18;;;8.50;99.90;;;;;;12475204;28;19943;-86
2024/02/20 21:18:12;;;;;;;121.03;113.05;;;8.40;99.90;;;;;;12456445;28;20064;-86
2024/02/20 21:24:14;;;;;;;117.38;109.40;;;8.40;99.90;;;;;;12455371;28;20443;-85
2024/02/20 21:30:16;;;;;;;118.57;110.93;;;8.40;99.90;;;;;;12464119;28;20050;-87
2024/02/20 21:36:18;;;;;;;117.93;109.68;;;8.40;99.90;;;;;;12447980;28;20053;-87
2024/02/20 21:42:20;;;;;;;122.93;114.15;;;8.50;99.90;;;;;;12460974;28;20563;-86
2024/02/20 21:48:24;;;;;;;;;;;8.40;99.90;;;;;;12479506;28;20053;-86
2024/02/20 21:54:26;;;;;;;119.55;111.18;;;8.50;99.90;;;;;;12476289;28;19921;-89
2024/02/20 22:00:28;;;;;;;116.32;108.00;;;8.40;99.90;;;;;;12473709;28;20053;-87
2024/02/20 22:06:30;;;;;;;118.65;110.07;;;8.40;99.90;;;;;;12492552;28;20070;-89
2024/02/20 22:12:32;;;;;;;108.93;101.25;;;8.40;99.90;;;;;;12459820;28;20054;-87
2024/02/20 22:18:36;;;;;;;116.20;108.10;;;8.50;99.90;;;;;;12460473;28;20048;-87
2024/02/20 22:24:39;;;;;;;117.10;108.00;;;8.40;99.90;;;;;;12474694;28;20045;-86
2024/02/20 22:30:41;;;;;;;114.50;106.60;;;8.40;99.90;;;;;;12459925;28;20049;-87
2024/02/20 22:36:44;;;;;;;118.63;110.30;;;8.40;99.90;;;;;;12485538;28;20470;-86
2024/02/20 22:42:49;;;;;;;117.43;108.38;;;8.30;99.90;;;;;;12478391;28;20042;-86
2024/02/20 22:48:51;;;;;;;115.35;107.03;;;8.30;99.90;;;;;;12473034;28;20049;-86
2024/02/20 22:54:54;;;;;;;117.97;109.28;;;8.20;99.90;;;;;;12475722;28;20049;-85
2024/02/20 23:00:56;;;;;;;114.97;106.70;;;8.20;99.90;;;;;;12464172;28;20494;-86
2024/02/20 23:06:58;;;;;;;114.60;106.18;;;8.20;99.90;;;;;;12477197;28;20061;-85
2024/02/20 23:13:03;;;;;;;119.65;110.70;;;8.10;99.90;;;;;;12455731;28;20117;-89
2024/02/20 23:19:08;;;;;;;117.15;108.63;;;8.10;99.90;;;;;;12462090;28;20057;-86
2024/02/20 23:25:12;;;;;;;114.18;105.75;;;8.10;99.90;;;;;;12480154;28;20524;-86
2024/02/20 23:31:15;;;;;;;112.90;104.55;;;8.10;99.90;;;;;;12470039;28;20057;-86
2024/02/20 23:37:17;;;;;;;115.55;106.63;;;8.10;99.90;;;;;;12492751;28;20056;-84
2024/02/20 23:43:20;;;;;;;111.97;103.82;;;8.00;99.90;;;;;;12462919;28;20175;-86
2024/02/20 23:49:23;;;;;;;;;;;7.90;99.90;;;;;;12471865;28;20107;-88
2024/02/20 23:55:25;;;;;;;110.95;102.65;;;8.00;99.90;;;;;;12451627;28;21056;-86
